sensor_id;sensor_type;location;lat;lon;timestamp;pressure;altitude;pressure_sealevel;temperature;humidity
79198;BME280;68628;48.714;9.472;2023-06-10T00:02:11;97677.63;;;16.36;64.74
79198;BME280;68628;48.714;9.472;2023-06-10T00:04:37;97677.50;;;16.31;64.65
79198;BME280;68628;48.714;9.472;2023-06-10T00:07:04;97677.81;;;16.23;65.11
79198;BME280;68628;48.714;9.472;2023-06-10T00:09:37;97672.50;;;16.23;65.21
79198;BME280;68628;48.714;9.472;2023-06-10T00:12:07;97679.16;;;16.13;65.46
79198;BME280;68628;48.714;9.472;2023-06-10T00:14:40;97674.53;;;16.09;65.72
79198;BME280;68628;48.714;9.472;2023-06-10T00:17:06;97684.47;;;16.13;65.59
79198;BME280;68628;48.714;9.472;2023-06-10T00:19:36;97674.38;;;16.04;65.77
79198;BME280;68628;48.714;9.472;2023-06-10T00:22:07;97675.56;;;16.08;65.62
79198;BME280;68628;48.714;9.472;2023-06-10T00:24:33;97678.66;;;16.05;65.80
79198;BME280;68628;48.714;9.472;2023-06-10T00:26:59;97685.09;;;15.97;65.98
79198;BME280;68628;48.714;9.472;2023-06-10T00:29:25;97683.53;;;15.89;66.27
79198;BME280;68628;48.714;9.472;2023-06-10T00:31:50;97684.88;;;15.98;65.85
79198;BME280;68628;48.714;9.472;2023-06-10T00:34:18;97674.09;;;15.93;66.45
79198;BME280;68628;48.714;9.472;2023-06-10T00:36:44;97679.72;;;15.85;66.79
79198;BME280;68628;48.714;9.472;2023-06-10T00:39:10;97674.81;;;15.82;66.46
79198;BME280;68628;48.714;9.472;2023-06-10T00:41:36;97675.88;;;15.81;66.88
79198;BME280;68628;48.714;9.472;2023-06-10T00:44:02;97681.59;;;15.78;66.69
79198;BME280;68628;48.714;9.472;2023-06-10T00:46:28;97682.19;;;15.80;66.21
79198;BME280;68628;48.714;9.472;2023-06-10T00:48:57;97682.63;;;15.77;66.81
79198;BME280;68628;48.714;9.472;2023-06-10T00:51:23;97674.88;;;15.75;66.72
79198;BME280;68628;48.714;9.472;2023-06-10T00:53:51;97676.97;;;15.73;66.45
79198;BME280;68628;48.714;9.472;2023-06-10T00:56:18;97665.16;;;15.69;66.73
79198;BME280;68628;48.714;9.472;2023-06-10T00:58:44;97662.91;;;15.66;66.79
79198;BME280;68628;48.714;9.472;2023-06-10T01:01:10;97669.50;;;15.63;66.75
79198;BME280;68628;48.714;9.472;2023-06-10T01:03:39;97660.94;;;15.61;66.86
79198;BME280;68628;48.714;9.472;2023-06-10T01:06:16;97671.78;;;15.60;67.50
79198;BME280;68628;48.714;9.472;2023-06-10T01:08:58;97674.66;;;15.58;67.30
79198;BME280;68628;48.714;9.472;2023-06-10T01:11:41;97673.03;;;15.57;67.58
79198;BME280;68628;48.714;9.472;2023-06-10T01:14:13;97671.47;;;15.49;67.39
79198;BME280;68628;48.714;9.472;2023-06-10T01:16:40;97679.59;;;15.55;67.70
79198;BME280;68628;48.714;9.472;2023-06-10T01:19:06;97677.31;;;15.58;67.51
79198;BME280;68628;48.714;9.472;2023-06-10T01:21:33;97669.34;;;15.58;67.80
79198;BME280;68628;48.714;9.472;2023-06-10T01:23:58;97664.47;;;15.55;68.00
79198;BME280;68628;48.714;9.472;2023-06-10T01:26:29;97672.28;;;15.50;68.19
79198;BME280;68628;48.714;9.472;2023-06-10T01:29:06;97672.97;;;15.45;68.29
79198;BME280;68628;48.714;9.472;2023-06-10T01:34:13;97662.69;;;15.49;68.01
79198;BME280;68628;48.714;9.472;2023-06-10T01:36:46;97665.34;;;15.49;68.67
79198;BME280;68628;48.714;9.472;2023-06-10T01:39:15;97672.13;;;15.45;68.98
79198;BME280;68628;48.714;9.472;2023-06-10T01:41:43;97669.91;;;15.42;68.89
79198;BME280;68628;48.714;9.472;2023-06-10T01:44:09;97671.00;;;15.34;69.86
79198;BME280;68628;48.714;9.472;2023-06-10T01:46:35;97670.78;;;15.36;69.41
79198;BME280;68628;48.714;9.472;2023-06-10T01:49:01;97665.94;;;15.32;69.30
79198;BME280;68628;48.714;9.472;2023-06-10T01:51:27;97665.78;;;15.27;69.54
79198;BME280;68628;48.714;9.472;2023-06-10T01:53:52;97666.56;;;15.28;69.02
79198;BME280;68628;48.714;9.472;2023-06-10T01:56:18;97662.31;;;15.27;69.28
79198;BME280;68628;48.714;9.472;2023-06-10T01:58:48;97667.41;;;15.28;68.94
79198;BME280;68628;48.714;9.472;2023-06-10T02:01:14;97672.38;;;15.18;70.18
79198;BME280;68628;48.714;9.472;2023-06-10T02:03:40;97666.22;;;15.24;69.34
79198;BME280;68628;48.714;9.472;2023-06-10T02:06:06;97673.63;;;15.15;69.88
79198;BME280;68628;48.714;9.472;2023-06-10T02:08:31;97673.97;;;15.01;69.98
79198;BME280;68628;48.714;9.472;2023-06-10T02:10:57;97679.44;;;15.06;70.31
79198;BME280;68628;48.714;9.472;2023-06-10T02:13:23;97680.91;;;15.02;69.66
79198;BME280;68628;48.714;9.472;2023-06-10T02:15:48;97672.78;;;14.96;70.33
79198;BME280;68628;48.714;9.472;2023-06-10T02:18:14;97668.13;;;14.92;70.13
79198;BME280;68628;48.714;9.472;2023-06-10T02:20:40;97677.09;;;14.91;70.51
79198;BME280;68628;48.714;9.472;2023-06-10T02:23:05;97677.75;;;14.86;70.45
79198;BME280;68628;48.714;9.472;2023-06-10T02:25:31;97680.78;;;14.90;70.55
79198;BME280;68628;48.714;9.472;2023-06-10T02:27:57;97682.22;;;14.86;70.66
79198;BME280;68628;48.714;9.472;2023-06-10T02:30:22;97677.53;;;14.88;70.24
79198;BME280;68628;48.714;9.472;2023-06-10T02:32:48;97686.72;;;14.85;70.68
79198;BME280;68628;48.714;9.472;2023-06-10T02:35:14;97685.09;;;14.84;70.25
79198;BME280;68628;48.714;9.472;2023-06-10T02:37:40;97687.41;;;14.80;70.83
79198;BME280;68628;48.714;9.472;2023-06-10T02:40:08;97695.94;;;14.82;70.76
79198;BME280;68628;48.714;9.472;2023-06-10T02:42:34;97693.28;;;14.82;70.44
79198;BME280;68628;48.714;9.472;2023-06-10T02:44:59;97696.59;;;14.78;70.55
79198;BME280;68628;48.714;9.472;2023-06-10T02:47:26;97699.25;;;14.78;70.57
79198;BME280;68628;48.714;9.472;2023-06-10T02:49:51;97702.06;;;14.83;70.25
79198;BME280;68628;48.714;9.472;2023-06-10T02:52:17;97701.22;;;14.82;70.26
79198;BME280;68628;48.714;9.472;2023-06-10T02:54:43;97700.00;;;14.85;70.65
79198;BME280;68628;48.714;9.472;2023-06-10T02:57:08;97700.44;;;14.82;70.77
79198;BME280;68628;48.714;9.472;2023-06-10T02:59:35;97705.13;;;14.80;69.92
79198;BME280;68628;48.714;9.472;2023-06-10T03:02:01;97704.53;;;14.78;70.59
79198;BME280;68628;48.714;9.472;2023-06-10T03:04:27;97705.56;;;14.77;70.68
79198;BME280;68628;48.714;9.472;2023-06-10T03:06:54;97702.75;;;14.72;71.06
79198;BME280;68628;48.714;9.472;2023-06-10T03:09:20;97711.31;;;14.67;70.75
79198;BME280;68628;48.714;9.472;2023-06-10T03:11:46;97708.47;;;14.69;70.85
79198;BME280;68628;48.714;9.472;2023-06-10T03:14:11;97713.63;;;14.63;70.77
79198;BME280;68628;48.714;9.472;2023-06-10T03:16:37;97723.78;;;14.60;71.64
79198;BME280;68628;48.714;9.472;2023-06-10T03:19:08;97719.19;;;14.42;72.30
79198;BME280;68628;48.714;9.472;2023-06-10T03:21:34;97715.13;;;14.39;72.21
79198;BME280;68628;48.714;9.472;2023-06-10T03:24:03;97725.91;;;14.44;71.89
79198;BME280;68628;48.714;9.472;2023-06-10T03:26:29;97717.53;;;14.47;72.31
79198;BME280;68628;48.714;9.472;2023-06-10T03:28:55;97729.56;;;14.50;71.21
79198;BME280;68628;48.714;9.472;2023-06-10T03:31:21;97730.16;;;14.52;71.68
79198;BME280;68628;48.714;9.472;2023-06-10T03:33:47;97729.53;;;14.57;71.32
79198;BME280;68628;48.714;9.472;2023-06-10T03:36:13;97727.84;;;14.62;71.13
79198;BME280;68628;48.714;9.472;2023-06-10T03:38:39;97738.69;;;14.61;72.20
79198;BME280;68628;48.714;9.472;2023-06-10T03:41:05;97733.38;;;14.61;71.45
79198;BME280;68628;48.714;9.472;2023-06-10T03:43:31;97740.13;;;14.57;71.53
79198;BME280;68628;48.714;9.472;2023-06-10T03:45:57;97739.47;;;14.61;71.55
79198;BME280;68628;48.714;9.472;2023-06-10T03:48:23;97747.44;;;14.61;71.63
79198;BME280;68628;48.714;9.472;2023-06-10T03:50:48;97744.78;;;14.61;72.15
79198;BME280;68628;48.714;9.472;2023-06-10T03:53:16;97743.41;;;14.52;71.99
79198;BME280;68628;48.714;9.472;2023-06-10T03:55:42;97741.59;;;14.53;71.60
79198;BME280;68628;48.714;9.472;2023-06-10T03:58:08;97742.78;;;14.57;71.65
79198;BME280;68628;48.714;9.472;2023-06-10T04:00:34;97746.25;;;14.57;72.07
79198;BME280;68628;48.714;9.472;2023-06-10T04:03:10;97745.22;;;14.58;72.23
79198;BME280;68628;48.714;9.472;2023-06-10T04:05:40;97752.50;;;14.70;72.01
79198;BME280;68628;48.714;9.472;2023-06-10T04:08:07;97745.34;;;14.77;71.72
79198;BME280;68628;48.714;9.472;2023-06-10T04:10:34;97749.50;;;14.66;71.70
79198;BME280;68628;48.714;9.472;2023-06-10T04:13:00;97752.31;;;14.71;71.76
79198;BME280;68628;48.714;9.472;2023-06-10T04:15:26;97749.47;;;14.73;72.77
79198;BME280;68628;48.714;9.472;2023-06-10T04:17:51;97749.50;;;14.66;72.30
79198;BME280;68628;48.714;9.472;2023-06-10T04:20:18;97751.28;;;14.72;72.19
79198;BME280;68628;48.714;9.472;2023-06-10T04:22:43;97754.72;;;14.79;71.96
79198;BME280;68628;48.714;9.472;2023-06-10T04:25:10;97755.59;;;14.66;71.98
79198;BME280;68628;48.714;9.472;2023-06-10T04:27:35;97760.28;;;14.64;72.71
79198;BME280;68628;48.714;9.472;2023-06-10T04:30:03;97758.59;;;14.77;71.94
79198;BME280;68628;48.714;9.472;2023-06-10T04:32:29;97761.44;;;14.82;72.25
79198;BME280;68628;48.714;9.472;2023-06-10T04:34:55;97761.84;;;14.79;72.29
79198;BME280;68628;48.714;9.472;2023-06-10T04:37:21;97766.91;;;14.87;71.78
79198;BME280;68628;48.714;9.472;2023-06-10T04:39:47;97761.31;;;15.02;71.50
79198;BME280;68628;48.714;9.472;2023-06-10T04:42:12;97769.09;;;14.97;71.66
79198;BME280;68628;48.714;9.472;2023-06-10T04:44:38;97767.63;;;15.01;71.73
79198;BME280;68628;48.714;9.472;2023-06-10T04:47:04;97782.03;;;15.12;70.98
79198;BME280;68628;48.714;9.472;2023-06-10T04:49:30;97779.19;;;15.13;71.05
79198;BME280;68628;48.714;9.472;2023-06-10T04:51:55;97775.66;;;15.20;70.91
79198;BME280;68628;48.714;9.472;2023-06-10T04:54:21;97775.25;;;15.23;70.17
79198;BME280;68628;48.714;9.472;2023-06-10T04:56:46;97769.28;;;15.27;71.09
79198;BME280;68628;48.714;9.472;2023-06-10T04:59:12;97770.69;;;15.30;70.31
79198;BME280;68628;48.714;9.472;2023-06-10T05:01:39;97773.84;;;15.45;70.48
79198;BME280;68628;48.714;9.472;2023-06-10T05:04:05;97768.59;;;15.39;70.16
79198;BME280;68628;48.714;9.472;2023-06-10T05:06:31;97772.31;;;15.56;70.04
79198;BME280;68628;48.714;9.472;2023-06-10T05:08:56;97775.56;;;15.58;70.37
79198;BME280;68628;48.714;9.472;2023-06-10T05:11:22;97775.31;;;15.66;70.27
79198;BME280;68628;48.714;9.472;2023-06-10T05:13:47;97762.91;;;15.79;70.41
79198;BME280;68628;48.714;9.472;2023-06-10T05:16:14;97775.13;;;15.87;70.10
79198;BME280;68628;48.714;9.472;2023-06-10T05:18:40;97776.97;;;15.86;70.30
79198;BME280;68628;48.714;9.472;2023-06-10T05:21:06;97777.94;;;15.92;69.15
79198;BME280;68628;48.714;9.472;2023-06-10T05:23:32;97778.84;;;16.23;67.66
79198;BME280;68628;48.714;9.472;2023-06-10T05:25:58;97776.84;;;16.18;68.02
79198;BME280;68628;48.714;9.472;2023-06-10T05:28:25;97781.03;;;16.26;68.76
79198;BME280;68628;48.714;9.472;2023-06-10T05:30:51;97788.56;;;16.47;67.67
79198;BME280;68628;48.714;9.472;2023-06-10T05:33:17;97783.47;;;16.46;67.69
79198;BME280;68628;48.714;9.472;2023-06-10T05:35:42;97778.69;;;16.66;66.90
79198;BME280;68628;48.714;9.472;2023-06-10T05:38:08;97784.06;;;16.97;65.37
79198;BME280;68628;48.714;9.472;2023-06-10T05:40:34;97790.53;;;17.01;65.39
79198;BME280;68628;48.714;9.472;2023-06-10T05:42:59;97793.00;;;17.03;65.04
79198;BME280;68628;48.714;9.472;2023-06-10T05:45:25;97785.59;;;17.05;65.97
79198;BME280;68628;48.714;9.472;2023-06-10T05:47:50;97783.66;;;17.12;65.83
79198;BME280;68628;48.714;9.472;2023-06-10T05:50:16;97787.28;;;17.41;65.09
79198;BME280;68628;48.714;9.472;2023-06-10T05:52:42;97790.53;;;17.55;64.12
79198;BME280;68628;48.714;9.472;2023-06-10T05:55:08;97786.47;;;17.64;64.62
79198;BME280;68628;48.714;9.472;2023-06-10T05:57:34;97787.50;;;17.63;63.72
79198;BME280;68628;48.714;9.472;2023-06-10T06:00:00;97796.59;;;18.10;63.28
79198;BME280;68628;48.714;9.472;2023-06-10T06:02:26;97793.53;;;18.71;60.49
79198;BME280;68628;48.714;9.472;2023-06-10T06:04:51;97791.28;;;18.79;60.17
79198;BME280;68628;48.714;9.472;2023-06-10T06:07:17;97797.16;;;19.39;58.53
79198;BME280;68628;48.714;9.472;2023-06-10T06:09:46;97791.66;;;19.46;58.19
79198;BME280;68628;48.714;9.472;2023-06-10T06:12:12;97792.63;;;19.57;57.52
79198;BME280;68628;48.714;9.472;2023-06-10T06:14:38;97792.13;;;19.77;56.60
79198;BME280;68628;48.714;9.472;2023-06-10T06:17:05;97792.28;;;20.26;55.25
79198;BME280;68628;48.714;9.472;2023-06-10T06:19:31;97792.28;;;20.48;55.59
79198;BME280;68628;48.714;9.472;2023-06-10T06:21:57;97789.97;;;20.79;54.57
79198;BME280;68628;48.714;9.472;2023-06-10T06:24:22;97789.38;;;21.27;52.73
79198;BME280;68628;48.714;9.472;2023-06-10T06:26:48;97787.28;;;21.34;52.84
79198;BME280;68628;48.714;9.472;2023-06-10T06:29:13;97801.25;;;22.11;51.64
79198;BME280;68628;48.714;9.472;2023-06-10T06:31:39;97790.31;;;22.28;50.84
79198;BME280;68628;48.714;9.472;2023-06-10T06:34:05;97788.75;;;23.32;48.70
79198;BME280;68628;48.714;9.472;2023-06-10T06:36:31;97794.25;;;22.58;49.96
79198;BME280;68628;48.714;9.472;2023-06-10T06:38:56;97792.25;;;23.27;49.13
79198;BME280;68628;48.714;9.472;2023-06-10T06:41:26;97791.44;;;23.42;48.52
79198;BME280;68628;48.714;9.472;2023-06-10T06:43:54;97790.84;;;23.97;46.39
79198;BME280;68628;48.714;9.472;2023-06-10T06:46:20;97796.53;;;23.44;48.03
79198;BME280;68628;48.714;9.472;2023-06-10T06:48:47;97794.06;;;24.15;46.96
79198;BME280;68628;48.714;9.472;2023-06-10T06:51:13;97798.28;;;24.36;45.85
79198;BME280;68628;48.714;9.472;2023-06-10T06:53:39;97798.13;;;23.91;47.01
79198;BME280;68628;48.714;9.472;2023-06-10T06:56:10;97797.25;;;24.27;45.79
79198;BME280;68628;48.714;9.472;2023-06-10T06:58:37;97794.09;;;24.04;46.22
79198;BME280;68628;48.714;9.472;2023-06-10T07:01:03;97798.91;;;24.12;46.35
79198;BME280;68628;48.714;9.472;2023-06-10T07:03:29;97800.72;;;24.27;45.93
79198;BME280;68628;48.714;9.472;2023-06-10T07:06:10;97796.47;;;24.21;45.87
79198;BME280;68628;48.714;9.472;2023-06-10T07:08:37;97798.91;;;24.12;45.79
79198;BME280;68628;48.714;9.472;2023-06-10T07:11:03;97801.13;;;24.71;44.16
79198;BME280;68628;48.714;9.472;2023-06-10T07:13:30;97802.03;;;25.01;43.93
79198;BME280;68628;48.714;9.472;2023-06-10T07:15:55;97809.31;;;24.95;44.39
79198;BME280;68628;48.714;9.472;2023-06-10T07:18:21;97799.44;;;25.59;43.00
79198;BME280;68628;48.714;9.472;2023-06-10T07:20:47;97806.50;;;25.85;42.22
79198;BME280;68628;48.714;9.472;2023-06-10T07:23:12;97808.28;;;25.36;43.62
79198;BME280;68628;48.714;9.472;2023-06-10T07:25:38;97807.44;;;25.01;44.03
79198;BME280;68628;48.714;9.472;2023-06-10T07:28:07;97794.88;;;25.89;41.85
79198;BME280;68628;48.714;9.472;2023-06-10T07:30:32;97801.63;;;26.84;41.30
79198;BME280;68628;48.714;9.472;2023-06-10T07:32:58;97804.31;;;27.03;39.66
79198;BME280;68628;48.714;9.472;2023-06-10T07:35:24;97805.94;;;26.85;40.01
79198;BME280;68628;48.714;9.472;2023-06-10T07:37:51;97800.97;;;26.49;39.92
79198;BME280;68628;48.714;9.472;2023-06-10T07:40:16;97799.38;;;26.23;41.36
79198;BME280;68628;48.714;9.472;2023-06-10T07:42:42;97795.59;;;26.24;41.83
79198;BME280;68628;48.714;9.472;2023-06-10T07:45:08;97799.44;;;25.89;41.33
79198;BME280;68628;48.714;9.472;2023-06-10T07:47:35;97794.41;;;26.79;40.19
79198;BME280;68628;48.714;9.472;2023-06-10T07:50:00;97791.78;;;26.25;41.81
79198;BME280;68628;48.714;9.472;2023-06-10T07:52:26;97801.53;;;26.46;40.54
79198;BME280;68628;48.714;9.472;2023-06-10T07:54:53;97800.59;;;26.80;39.74
79198;BME280;68628;48.714;9.472;2023-06-10T07:57:19;97795.44;;;26.59;40.01
79198;BME280;68628;48.714;9.472;2023-06-10T07:59:45;97797.41;;;26.53;39.79
79198;BME280;68628;48.714;9.472;2023-06-10T08:02:11;97790.38;;;26.96;39.91
79198;BME280;68628;48.714;9.472;2023-06-10T08:04:36;97798.41;;;27.72;38.09
79198;BME280;68628;48.714;9.472;2023-06-10T08:07:20;97790.75;;;28.21;38.24
79198;BME280;68628;48.714;9.472;2023-06-10T08:09:47;97795.16;;;27.56;39.53
79198;BME280;68628;48.714;9.472;2023-06-10T08:12:13;97780.06;;;27.83;38.40
79198;BME280;68628;48.714;9.472;2023-06-10T08:14:39;97785.53;;;28.11;38.12
79198;BME280;68628;48.714;9.472;2023-06-10T08:17:05;97782.66;;;27.74;37.80
79198;BME280;68628;48.714;9.472;2023-06-10T08:19:31;97790.78;;;27.22;38.99
79198;BME280;68628;48.714;9.472;2023-06-10T08:22:00;97784.34;;;27.56;37.72
79198;BME280;68628;48.714;9.472;2023-06-10T08:24:26;97778.78;;;28.36;37.35
79198;BME280;68628;48.714;9.472;2023-06-10T08:26:52;97778.72;;;27.66;37.84
79198;BME280;68628;48.714;9.472;2023-06-10T08:29:17;97783.59;;;28.11;37.47
79198;BME280;68628;48.714;9.472;2023-06-10T08:31:44;97787.22;;;28.34;37.08
79198;BME280;68628;48.714;9.472;2023-06-10T08:34:10;97781.66;;;29.04;35.25
79198;BME280;68628;48.714;9.472;2023-06-10T08:36:35;97776.47;;;28.15;36.48
79198;BME280;68628;48.714;9.472;2023-06-10T08:39:02;97772.34;;;28.46;35.60
79198;BME280;68628;48.714;9.472;2023-06-10T08:41:28;97774.84;;;28.56;35.42
79198;BME280;68628;48.714;9.472;2023-06-10T08:44:08;97772.97;;;28.42;36.41
79198;BME280;68628;48.714;9.472;2023-06-10T08:46:38;97776.28;;;28.39;36.97
79198;BME280;68628;48.714;9.472;2023-06-10T08:49:10;97773.88;;;28.38;35.88
79198;BME280;68628;48.714;9.472;2023-06-10T08:51:50;97778.16;;;29.40;34.98
79198;BME280;68628;48.714;9.472;2023-06-10T08:54:25;97778.41;;;29.16;35.04
79198;BME280;68628;48.714;9.472;2023-06-10T08:56:55;97769.25;;;29.25;34.53
79198;BME280;68628;48.714;9.472;2023-06-10T08:59:25;97776.56;;;29.70;33.89
79198;BME280;68628;48.714;9.472;2023-06-10T09:01:52;97774.38;;;29.81;33.49
79198;BME280;68628;48.714;9.472;2023-06-10T09:04:19;97779.41;;;29.65;34.72
79198;BME280;68628;48.714;9.472;2023-06-10T09:06:49;97763.66;;;30.74;31.49
79198;BME280;68628;48.714;9.472;2023-06-10T09:09:15;97766.03;;;30.58;32.93
79198;BME280;68628;48.714;9.472;2023-06-10T09:11:42;97764.75;;;30.55;32.13
79198;BME280;68628;48.714;9.472;2023-06-10T09:14:08;97772.44;;;29.05;34.39
79198;BME280;68628;48.714;9.472;2023-06-10T09:16:34;97765.81;;;29.88;33.03
79198;BME280;68628;48.714;9.472;2023-06-10T09:19:01;97766.91;;;29.87;33.30
79198;BME280;68628;48.714;9.472;2023-06-10T09:21:36;97768.25;;;30.07;33.71
79198;BME280;68628;48.714;9.472;2023-06-10T09:24:02;97769.75;;;31.06;32.02
79198;BME280;68628;48.714;9.472;2023-06-10T09:26:28;97760.44;;;30.72;32.72
79198;BME280;68628;48.714;9.472;2023-06-10T09:29:05;97762.53;;;30.84;31.76
79198;BME280;68628;48.714;9.472;2023-06-10T09:31:35;97755.00;;;31.24;31.74
79198;BME280;68628;48.714;9.472;2023-06-10T09:34:10;97760.13;;;31.35;30.78
79198;BME280;68628;48.714;9.472;2023-06-10T09:36:38;97752.69;;;32.09;29.79
79198;BME280;68628;48.714;9.472;2023-06-10T09:39:13;97751.66;;;30.57;31.48
79198;BME280;68628;48.714;9.472;2023-06-10T09:41:45;97750.72;;;30.13;31.21
79198;BME280;68628;48.714;9.472;2023-06-10T09:44:13;97749.09;;;30.52;31.38
79198;BME280;68628;48.714;9.472;2023-06-10T09:46:48;97751.09;;;29.57;32.91
79198;BME280;68628;48.714;9.472;2023-06-10T09:49:18;97754.69;;;29.44;33.72
79198;BME280;68628;48.714;9.472;2023-06-10T09:51:52;97754.94;;;29.11;33.90
79198;BME280;68628;48.714;9.472;2023-06-10T09:54:20;97754.63;;;28.90;34.84
79198;BME280;68628;48.714;9.472;2023-06-10T09:56:51;97754.47;;;29.63;33.91
79198;BME280;68628;48.714;9.472;2023-06-10T09:59:30;97743.78;;;31.00;31.55
79198;BME280;68628;48.714;9.472;2023-06-10T10:01:57;97749.75;;;30.84;30.97
79198;BME280;68628;48.714;9.472;2023-06-10T10:04:26;97746.69;;;31.30;29.24
79198;BME280;68628;48.714;9.472;2023-06-10T10:06:53;97751.81;;;30.52;30.66
79198;BME280;68628;48.714;9.472;2023-06-10T10:09:19;97747.44;;;29.94;31.17
79198;BME280;68628;48.714;9.472;2023-06-10T10:11:46;97749.31;;;28.20;33.78
79198;BME280;68628;48.714;9.472;2023-06-10T10:14:15;97737.28;;;29.22;31.90
79198;BME280;68628;48.714;9.472;2023-06-10T10:16:42;97742.69;;;29.68;32.65
79198;BME280;68628;48.714;9.472;2023-06-10T10:19:15;97734.75;;;28.81;33.91
79198;BME280;68628;48.714;9.472;2023-06-10T10:22:08;97738.34;;;27.98;35.04
79198;BME280;68628;48.714;9.472;2023-06-10T10:24:49;97733.16;;;29.25;33.69
79198;BME280;68628;48.714;9.472;2023-06-10T10:27:35;97729.63;;;29.79;31.63
79198;BME280;68628;48.714;9.472;2023-06-10T10:30:06;97730.69;;;28.92;32.59
79198;BME280;68628;48.714;9.472;2023-06-10T10:35:23;97731.56;;;30.18;30.81
79198;BME280;68628;48.714;9.472;2023-06-10T10:37:54;97724.66;;;29.40;32.37
79198;BME280;68628;48.714;9.472;2023-06-10T10:40:21;97727.38;;;30.12;30.75
79198;BME280;68628;48.714;9.472;2023-06-10T10:42:49;97727.16;;;28.69;33.83
79198;BME280;68628;48.714;9.472;2023-06-10T10:45:16;97734.03;;;29.34;32.73
79198;BME280;68628;48.714;9.472;2023-06-10T10:47:45;97729.81;;;30.40;30.17
79198;BME280;68628;48.714;9.472;2023-06-10T10:50:16;97734.66;;;30.52;30.02
79198;BME280;68628;48.714;9.472;2023-06-10T10:52:52;97725.91;;;29.97;29.12
79198;BME280;68628;48.714;9.472;2023-06-10T10:55:19;97723.88;;;29.80;31.38
79198;BME280;68628;48.714;9.472;2023-06-10T10:58:03;97729.56;;;29.30;31.97
79198;BME280;68628;48.714;9.472;2023-06-10T11:00:56;97717.72;;;29.03;32.01
79198;BME280;68628;48.714;9.472;2023-06-10T11:03:22;97717.88;;;28.84;32.51
79198;BME280;68628;48.714;9.472;2023-06-10T11:05:57;97719.22;;;28.58;32.23
79198;BME280;68628;48.714;9.472;2023-06-10T11:10:58;97714.50;;;28.78;33.31
79198;BME280;68628;48.714;9.472;2023-06-10T11:13:26;97707.97;;;28.79;33.66
79198;BME280;68628;48.714;9.472;2023-06-10T11:15:57;97711.53;;;28.66;33.65
79198;BME280;68628;48.714;9.472;2023-06-10T11:18:28;97710.91;;;28.55;33.90
79198;BME280;68628;48.714;9.472;2023-06-10T11:20:56;97705.06;;;28.62;33.69
79198;BME280;68628;48.714;9.472;2023-06-10T11:31:24;97712.56;;;28.28;33.62
79198;BME280;68628;48.714;9.472;2023-06-10T11:33:54;97712.84;;;28.40;33.76
79198;BME280;68628;48.714;9.472;2023-06-10T11:36:25;97714.81;;;28.12;34.19
79198;BME280;68628;48.714;9.472;2023-06-10T11:39:00;97710.78;;;28.09;34.01
79198;BME280;68628;48.714;9.472;2023-06-10T11:41:30;97698.34;;;28.22;35.37
79198;BME280;68628;48.714;9.472;2023-06-10T11:44:11;97697.94;;;27.73;34.68
79198;BME280;68628;48.714;9.472;2023-06-10T11:46:39;97705.16;;;28.06;35.06
79198;BME280;68628;48.714;9.472;2023-06-10T11:49:06;97697.53;;;27.80;35.21
79198;BME280;68628;48.714;9.472;2023-06-10T11:51:37;97684.09;;;27.75;34.97
79198;BME280;68628;48.714;9.472;2023-06-10T11:54:04;97693.66;;;28.14;34.32
79198;BME280;68628;48.714;9.472;2023-06-10T11:56:32;97697.34;;;28.69;33.53
79198;BME280;68628;48.714;9.472;2023-06-10T11:59:06;97696.25;;;28.70;33.37
79198;BME280;68628;48.714;9.472;2023-06-10T12:01:37;97688.13;;;28.70;33.64
79198;BME280;68628;48.714;9.472;2023-06-10T12:04:10;97682.94;;;29.28;33.81
79198;BME280;68628;48.714;9.472;2023-06-10T12:06:48;97683.44;;;29.30;32.28
79198;BME280;68628;48.714;9.472;2023-06-10T12:09:24;97679.50;;;28.54;33.43
79198;BME280;68628;48.714;9.472;2023-06-10T12:12:05;97684.06;;;28.31;32.37
79198;BME280;68628;48.714;9.472;2023-06-10T12:14:54;97675.19;;;28.16;31.76
79198;BME280;68628;48.714;9.472;2023-06-10T12:20:06;97682.47;;;28.30;32.71
79198;BME280;68628;48.714;9.472;2023-06-10T12:22:55;97668.06;;;28.06;32.24
79198;BME280;68628;48.714;9.472;2023-06-10T12:25:31;97672.47;;;28.53;31.82
79198;BME280;68628;48.714;9.472;2023-06-10T12:28:00;97673.81;;;28.78;31.64
79198;BME280;68628;48.714;9.472;2023-06-10T12:31:10;97669.31;;;28.37;32.94
79198;BME280;68628;48.714;9.472;2023-06-10T12:33:53;97664.28;;;28.44;33.25
79198;BME280;68628;48.714;9.472;2023-06-10T12:36:48;97667.38;;;28.51;33.15
79198;BME280;68628;48.714;9.472;2023-06-10T12:39:23;97672.19;;;28.54;32.52
79198;BME280;68628;48.714;9.472;2023-06-10T12:41:55;97661.44;;;28.49;32.56
79198;BME280;68628;48.714;9.472;2023-06-10T12:44:56;97661.44;;;28.49;33.07
79198;BME280;68628;48.714;9.472;2023-06-10T12:47:58;97663.34;;;28.26;33.50
79198;BME280;68628;48.714;9.472;2023-06-10T12:50:55;97659.69;;;28.31;32.95
79198;BME280;68628;48.714;9.472;2023-06-10T12:53:32;97674.38;;;28.02;33.09
79198;BME280;68628;48.714;9.472;2023-06-10T12:56:05;97662.16;;;28.18;33.89
79198;BME280;68628;48.714;9.472;2023-06-10T12:58:59;97663.91;;;28.37;31.47
79198;BME280;68628;48.714;9.472;2023-06-10T13:01:58;97664.91;;;28.41;32.24
79198;BME280;68628;48.714;9.472;2023-06-10T13:04:36;97662.78;;;28.97;31.32
79198;BME280;68628;48.714;9.472;2023-06-10T13:10:07;97659.72;;;28.53;33.78
79198;BME280;68628;48.714;9.472;2023-06-10T13:12:52;97653.44;;;28.44;33.80
79198;BME280;68628;48.714;9.472;2023-06-10T13:15:34;97647.69;;;28.82;33.63
79198;BME280;68628;48.714;9.472;2023-06-10T13:18:03;97656.25;;;28.75;33.24
79198;BME280;68628;48.714;9.472;2023-06-10T13:20:32;97655.22;;;28.26;34.45
79198;BME280;68628;48.714;9.472;2023-06-10T13:23:09;97662.16;;;28.04;34.49
79198;BME280;68628;48.714;9.472;2023-06-10T13:25:39;97655.78;;;28.37;34.79
79198;BME280;68628;48.714;9.472;2023-06-10T13:28:11;97656.56;;;28.97;34.85
79198;BME280;68628;48.714;9.472;2023-06-10T13:30:51;97652.06;;;28.69;32.84
79198;BME280;68628;48.714;9.472;2023-06-10T13:33:24;97644.44;;;28.57;32.65